createdAt,value
2019-02-02T00:01:09.695Z,31.17
2019-02-02T00:03:39.154Z,31.10
2019-02-02T00:06:08.472Z,33.90
2019-02-02T00:08:37.852Z,29.50
2019-02-02T00:11:07.283Z,32.47
2019-02-02T00:13:36.546Z,34.87
2019-02-02T00:16:06.368Z,37.77
2019-02-02T00:18:35.775Z,35.07
2019-02-02T00:21:05.180Z,33.87
2019-02-02T00:23:34.545Z,35.40
2019-02-02T00:26:03.862Z,36.03
2019-02-02T00:28:33.252Z,30.73
2019-02-02T00:31:02.543Z,32.07
2019-02-02T00:33:32.800Z,30.57
2019-02-02T00:36:02.428Z,40.13
2019-02-02T00:38:31.796Z,35.87
2019-02-02T00:41:01.083Z,32.40
2019-02-02T00:43:31.089Z,35.67
2019-02-02T00:46:00.461Z,35.87
2019-02-02T00:48:29.748Z,34.37
2019-02-02T00:50:59.524Z,33.70
2019-02-02T00:53:28.914Z,34.23
2019-02-02T00:55:58.198Z,36.23
2019-02-02T00:58:27.519Z,34.43
2019-02-02T01:00:56.865Z,35.53
2019-02-02T01:03:26.173Z,36.33
2019-02-02T01:05:56.239Z,32.10
2019-02-02T01:08:25.598Z,38.73
2019-02-02T01:10:54.992Z,31.87
2019-02-02T01:13:24.288Z,36.07
2019-02-02T01:15:53.708Z,35.90
2019-02-02T01:18:23.160Z,35.03
2019-02-02T01:20:52.504Z,36.37
2019-02-02T01:23:21.855Z,31.20
2019-02-02T01:25:51.271Z,32.20
2019-02-02T01:28:20.608Z,31.20
2019-02-02T01:30:50.704Z,31.40
2019-02-02T01:33:20.308Z,35.10
2019-02-02T01:35:49.515Z,34.77
2019-02-02T01:38:18.968Z,34.07
2019-02-02T01:40:48.363Z,32.30
2019-02-02T01:43:17.671Z,29.77
2019-02-02T01:45:47.028Z,35.63
2019-02-02T01:48:16.355Z,32.43
2019-02-02T01:50:45.795Z,34.83
2019-02-02T01:53:15.127Z,30.57
2019-02-02T01:55:44.875Z,34.20
2019-02-02T01:58:16.863Z,29.83
2019-02-02T02:00:43.590Z,29.77
2019-02-02T02:03:12.928Z,30.47
2019-02-02T02:05:42.363Z,28.77
2019-02-02T02:08:11.764Z,31.40
2019-02-02T02:10:41.156Z,32.47
2019-02-02T02:13:10.509Z,32.37
2019-02-02T02:15:39.829Z,31.87
2019-02-02T02:18:10.036Z,32.83
2019-02-02T02:20:39.435Z,33.40
2019-02-02T02:23:08.833Z,32.10
2019-02-02T02:25:39.007Z,37.20
2019-02-02T02:28:08.397Z,35.70
2019-02-02T02:30:38.203Z,30.83
2019-02-02T02:33:08.057Z,29.60
2019-02-02T02:35:37.428Z,30.53
2019-02-02T02:38:06.942Z,33.57
2019-02-02T02:40:36.308Z,32.67
2019-02-02T02:43:05.548Z,33.27
2019-02-02T02:45:34.868Z,34.60
2019-02-02T02:48:04.266Z,34.40
2019-02-02T02:50:33.708Z,34.83
2019-02-02T02:53:03.061Z,33.47
2019-02-02T02:55:32.427Z,37.00
2019-02-02T02:58:01.832Z,34.17
2019-02-02T03:00:31.239Z,35.60
2019-02-02T03:03:00.580Z,32.20
2019-02-02T03:05:36.720Z,35.00
2019-02-02T03:08:06.183Z,32.27
2019-02-02T03:10:36.899Z,38.00
2019-02-02T03:13:06.282Z,35.90
2019-02-02T03:15:35.609Z,36.80
2019-02-02T03:18:04.996Z,33.63
2019-02-02T03:20:34.362Z,37.50
2019-02-02T03:23:03.702Z,32.60
2019-02-02T03:25:33.048Z,34.17
2019-02-02T03:28:02.712Z,40.50
2019-02-02T03:30:32.185Z,34.90
2019-02-02T03:33:02.113Z,33.53
2019-02-02T03:35:31.537Z,34.53
2019-02-02T03:38:00.923Z,34.67
2019-02-02T03:40:30.301Z,38.13
2019-02-02T03:42:59.637Z,34.87
2019-02-02T03:45:29.090Z,36.50
2019-02-02T03:47:58.467Z,34.60
2019-02-02T03:50:27.802Z,36.37
2019-02-02T03:52:57.167Z,39.40
2019-02-02T03:55:26.578Z,37.43
2019-02-02T03:57:55.755Z,36.03
2019-02-02T04:00:25.215Z,34.47
2019-02-02T04:02:54.535Z,35.80
2019-02-02T04:05:27.654Z,34.07
2019-02-02T04:07:56.954Z,35.47
2019-02-02T04:10:26.687Z,35.30
2019-02-02T04:12:55.989Z,35.60
2019-02-02T04:15:25.268Z,36.77
2019-02-02T04:17:54.653Z,34.27
2019-02-02T04:20:24.029Z,34.67
2019-02-02T04:22:53.410Z,38.17
2019-02-02T04:25:22.963Z,37.53
2019-02-02T04:27:52.330Z,37.25
2019-02-02T04:30:24.228Z,34.03
2019-02-02T04:32:53.647Z,35.93
2019-02-02T04:35:23.004Z,35.73
2019-02-02T04:37:53.188Z,37.40
2019-02-02T04:40:22.503Z,35.23
2019-02-02T04:42:51.869Z,36.87
2019-02-02T04:45:21.216Z,35.37
2019-02-02T04:47:50.533Z,36.07
2019-02-02T04:50:19.938Z,35.67
2019-02-02T04:52:49.247Z,41.53
2019-02-02T04:55:18.997Z,37.47
2019-02-02T04:57:48.267Z,38.63
2019-02-02T05:00:23.279Z,36.60
2019-02-02T05:02:52.775Z,37.13
2019-02-02T05:05:22.141Z,38.83
2019-02-02T05:07:51.435Z,41.70
2019-02-02T05:10:21.992Z,39.97
2019-02-02T05:12:51.430Z,42.23
2019-02-02T05:15:22.436Z,40.73
2019-02-02T05:17:51.860Z,41.60
2019-02-02T05:20:21.352Z,42.83
2019-02-02T05:22:50.553Z,42.50
2019-02-02T05:25:19.970Z,45.23
2019-02-02T05:27:49.384Z,39.93
2019-02-02T05:30:23.360Z,42.03
2019-02-02T05:32:52.771Z,44.43
2019-02-02T05:35:22.055Z,43.93
2019-02-02T05:37:51.384Z,44.73
2019-02-02T05:40:21.500Z,47.53
2019-02-02T05:42:50.832Z,38.43
2019-02-02T05:45:21.045Z,45.33
2019-02-02T05:47:50.559Z,37.37
2019-02-02T05:50:22.074Z,43.27
2019-02-02T05:52:51.424Z,43.87
2019-02-02T05:55:21.335Z,45.17
2019-02-02T05:57:50.639Z,46.87
2019-02-02T06:00:27.553Z,45.33
2019-02-02T06:02:56.788Z,42.27
2019-02-02T06:05:26.284Z,41.13
2019-02-02T06:07:55.600Z,41.27
2019-02-02T06:10:25.081Z,40.87
2019-02-02T06:12:54.388Z,39.83
2019-02-02T06:15:23.688Z,42.70
2019-02-02T06:17:53.019Z,42.37
2019-02-02T06:20:22.460Z,38.27
2019-02-02T06:22:51.810Z,44.70
2019-02-02T06:25:22.117Z,38.40
2019-02-02T06:27:51.796Z,38.60
2019-02-02T06:30:21.272Z,44.47
2019-02-02T06:32:50.576Z,43.80
2019-02-02T06:35:19.983Z,44.13
2019-02-02T06:37:49.422Z,46.03
2019-02-02T06:40:19.008Z,42.33
2019-02-02T06:42:48.477Z,41.40
2019-02-02T06:45:24.847Z,42.03
2019-02-02T06:47:54.255Z,42.20
2019-02-02T06:50:23.660Z,44.63
2019-02-02T06:52:59.819Z,46.17
2019-02-02T06:55:29.177Z,46.17
2019-02-02T06:57:58.503Z,42.20
2019-02-02T07:00:28.004Z,44.13
2019-02-02T07:02:57.363Z,42.43
2019-02-02T07:05:26.720Z,44.37
2019-02-02T07:07:57.083Z,40.33
2019-02-02T07:10:27.220Z,42.93
2019-02-02T07:12:56.583Z,38.07
2019-02-02T07:15:28.124Z,45.07
2019-02-02T07:17:57.598Z,48.40
2019-02-02T07:20:26.979Z,41.83
2019-02-02T07:22:56.279Z,45.47
2019-02-02T07:25:25.670Z,42.60
2019-02-02T07:27:55.067Z,42.83
2019-02-02T07:30:28.653Z,45.97
2019-02-02T07:32:54.412Z,41.50
2019-02-02T07:35:23.869Z,43.00
2019-02-02T07:37:54.263Z,40.77
2019-02-02T07:40:23.627Z,41.20
2019-02-02T07:42:53.011Z,41.33
2019-02-02T07:45:26.066Z,45.70
2019-02-02T07:47:55.979Z,40.80
2019-02-02T07:50:25.299Z,40.03
2019-02-02T07:52:54.652Z,41.67
2019-02-02T07:55:24.036Z,46.30
2019-02-02T07:57:53.382Z,40.03
2019-02-02T08:00:39.722Z,45.03
2019-02-02T08:02:57.375Z,40.97
2019-02-02T08:05:26.702Z,38.37
2019-02-02T08:07:56.120Z,35.47
2019-02-02T08:10:25.523Z,35.70
2019-02-02T08:12:54.994Z,35.60
2019-02-02T08:15:28.539Z,37.93
2019-02-02T08:17:57.993Z,37.03
2019-02-02T08:20:28.276Z,39.33
2019-02-02T08:22:57.645Z,37.90
2019-02-02T08:25:27.540Z,38.03
2019-02-02T08:27:57.062Z,38.33
2019-02-02T08:30:29.460Z,39.13
2019-02-02T08:32:58.843Z,36.63
2019-02-02T08:35:28.299Z,32.37
2019-02-02T08:37:57.661Z,39.07
2019-02-02T08:40:27.071Z,38.30
2019-02-02T08:42:56.371Z,34.17
2019-02-02T08:45:25.697Z,33.43
2019-02-02T08:47:55.014Z,35.20
2019-02-02T08:50:31.000Z,39.83
2019-02-02T08:53:00.470Z,39.73
2019-02-02T08:55:29.755Z,38.90
2019-02-02T08:57:59.023Z,38.07
2019-02-02T09:00:28.511Z,43.70
2019-02-02T09:02:57.868Z,40.03
2019-02-02T09:05:27.440Z,35.97
2019-02-02T09:07:56.690Z,31.87
2019-02-02T09:10:27.869Z,39.83
2019-02-02T09:12:57.757Z,35.47
2019-02-02T09:15:28.090Z,36.40
2019-02-02T09:17:57.645Z,39.37
2019-02-02T09:20:26.928Z,36.87
2019-02-02T09:23:05.916Z,34.67
2019-02-02T09:25:25.539Z,37.10
2019-02-02T09:27:54.968Z,36.07
2019-02-02T09:30:28.732Z,36.07
2019-02-02T09:32:58.077Z,44.17
2019-02-02T09:35:27.712Z,41.73
2019-02-02T09:37:57.025Z,42.87
2019-02-02T09:40:26.337Z,43.60
2019-02-02T09:42:55.628Z,43.17
2019-02-02T09:45:25.102Z,42.17
2019-02-02T09:47:54.544Z,43.67
2019-02-02T09:50:25.135Z,49.50
2019-02-02T09:52:55.343Z,40.00
2019-02-02T09:55:25.014Z,41.67
2019-02-02T09:57:58.016Z,40.37
2019-02-02T10:00:29.940Z,38.33
2019-02-02T10:02:59.407Z,39.03
2019-02-02T10:05:29.690Z,42.90
2019-02-02T10:07:59.041Z,44.07
2019-02-02T10:10:30.909Z,45.30
2019-02-02T10:13:00.268Z,42.43
2019-02-02T10:15:30.259Z,42.77
2019-02-02T10:17:59.545Z,40.90
2019-02-02T10:20:30.729Z,42.43
2019-02-02T10:23:00.516Z,46.97
2019-02-02T10:25:31.137Z,43.60
2019-02-02T10:28:00.356Z,45.10
2019-02-02T10:30:34.088Z,46.73
2019-02-02T10:33:03.532Z,45.43
2019-02-02T10:35:32.935Z,44.77
2019-02-02T10:38:02.272Z,43.80
2019-02-02T10:40:31.579Z,49.50
2019-02-02T10:43:00.887Z,46.80
2019-02-02T10:45:30.176Z,45.33
2019-02-02T10:47:59.424Z,53.97
2019-02-02T10:50:28.814Z,51.73
2019-02-02T10:52:58.240Z,49.50
2019-02-02T10:55:27.662Z,53.47
2019-02-02T10:57:57.010Z,57.90
2019-02-02T11:00:30.580Z,57.63
2019-02-02T11:02:59.949Z,56.80
2019-02-02T11:05:29.429Z,60.67
2019-02-02T11:07:58.936Z,56.53
2019-02-02T11:10:30.326Z,49.77
2019-02-02T11:13:00.317Z,49.23
2019-02-02T11:15:29.722Z,46.60
2019-02-02T11:17:59.391Z,45.20
2019-02-02T11:20:31.323Z,48.37
2019-02-02T11:23:00.854Z,48.97
2019-02-02T11:25:30.191Z,43.40
2019-02-02T11:27:59.430Z,48.60
2019-02-02T11:30:29.053Z,47.03
2019-02-02T11:32:58.366Z,51.13
2019-02-02T11:35:27.716Z,46.80
2019-02-02T11:37:57.115Z,42.80
2019-02-02T11:40:30.220Z,44.70
2019-02-02T11:42:59.631Z,45.00
2019-02-02T11:45:29.187Z,42.37
2019-02-02T11:47:58.552Z,39.57
2019-02-02T11:50:27.844Z,40.77
2019-02-02T11:52:57.151Z,36.67
2019-02-02T11:55:26.480Z,33.20
2019-02-02T11:57:55.791Z,40.80
2019-02-02T12:00:42.208Z,35.20
2019-02-02T12:03:11.480Z,37.13
2019-02-02T12:05:40.845Z,40.40
2019-02-02T12:08:10.192Z,39.63
2019-02-02T12:10:39.468Z,39.67
2019-02-02T12:13:08.773Z,44.73
2019-02-02T12:15:39.099Z,40.13
2019-02-02T12:18:08.504Z,41.03
2019-02-02T12:20:37.843Z,37.77
2019-02-02T12:23:07.309Z,37.80
2019-02-02T12:25:37.435Z,40.37
2019-02-02T12:28:09.158Z,41.63
2019-02-02T12:30:37.383Z,39.50
2019-02-02T12:33:07.320Z,42.90
2019-02-02T12:35:37.260Z,46.90
2019-02-02T12:38:06.527Z,45.97
2019-02-02T12:40:35.891Z,45.80
2019-02-02T12:43:05.531Z,45.93
2019-02-02T12:45:39.711Z,46.10
2019-02-02T12:48:09.045Z,48.80
2019-02-02T12:50:38.384Z,52.40
2019-02-02T12:53:12.548Z,51.37
2019-02-02T12:55:41.983Z,47.97
2019-02-02T12:58:11.376Z,55.93
2019-02-02T13:00:40.930Z,52.17
2019-02-02T13:03:10.256Z,50.27
2019-02-02T13:05:39.684Z,51.90
2019-02-02T13:08:09.065Z,53.67
2019-02-02T13:10:38.450Z,59.70
2019-02-02T13:13:07.839Z,54.87
2019-02-02T13:15:37.169Z,54.20
2019-02-02T13:18:06.572Z,58.30
2019-02-02T13:20:35.973Z,54.73
2019-02-02T13:23:05.338Z,53.40
2019-02-02T13:25:34.700Z,54.13
2019-02-02T13:28:03.976Z,53.77
2019-02-02T13:30:35.651Z,48.90
2019-02-02T13:33:06.163Z,52.63
2019-02-02T13:35:38.777Z,53.53
2019-02-02T13:38:08.211Z,50.77
2019-02-02T13:40:37.569Z,47.97
2019-02-02T13:43:06.944Z,53.50
2019-02-02T13:45:36.268Z,47.50
2019-02-02T13:48:05.763Z,47.97
2019-02-02T13:50:35.196Z,49.53
2019-02-02T13:53:05.005Z,51.40
2019-02-02T13:55:36.032Z,49.77
2019-02-02T13:58:06.112Z,52.63
2019-02-02T14:00:36.122Z,53.27
2019-02-02T14:03:05.440Z,49.20
2019-02-02T14:05:34.751Z,58.17
2019-02-02T14:08:05.003Z,56.30
2019-02-02T14:10:35.306Z,52.27
2019-02-02T14:13:04.691Z,56.80
2019-02-02T14:15:34.060Z,58.80
2019-02-02T14:18:03.413Z,55.83
2019-02-02T14:20:32.824Z,56.87
2019-02-02T14:23:02.221Z,52.73
2019-02-02T14:25:31.619Z,55.30
2019-02-02T14:28:00.905Z,55.60
2019-02-02T14:30:30.219Z,51.07
2019-02-02T14:32:59.585Z,58.03
2019-02-02T14:35:29.291Z,54.40
2019-02-02T14:37:58.587Z,57.73
2019-02-02T14:40:28.088Z,67.30
2019-02-02T14:42:57.519Z,53.63
2019-02-02T14:45:28.071Z,56.40
2019-02-02T14:47:56.951Z,59.17
2019-02-02T14:50:26.907Z,58.20
2019-02-02T14:52:57.162Z,59.03
2019-02-02T14:55:28.879Z,55.90
2019-02-02T14:57:59.099Z,54.57
2019-02-02T15:00:32.592Z,58.97
2019-02-02T15:03:03.363Z,51.63
2019-02-02T15:05:42.402Z,57.27
2019-02-02T15:08:00.998Z,57.13
2019-02-02T15:10:30.313Z,56.73
2019-02-02T15:12:59.605Z,60.40
2019-02-02T15:15:28.954Z,60.83
2019-02-02T15:17:58.327Z,62.63
2019-02-02T15:20:33.144Z,57.47
2019-02-02T15:23:03.078Z,61.50
2019-02-02T15:25:32.508Z,57.93
2019-02-02T15:28:02.290Z,63.87
2019-02-02T15:30:31.947Z,62.93
2019-02-02T15:33:01.253Z,61.90
2019-02-02T15:35:31.992Z,60.70
2019-02-02T15:38:01.458Z,60.30
2019-02-02T15:40:31.648Z,64.60
2019-02-02T15:43:00.038Z,66.47
2019-02-02T15:45:30.380Z,65.07
2019-02-02T15:47:59.794Z,89.57
2019-02-02T15:50:29.127Z,65.13
2019-02-02T15:52:58.453Z,61.07
2019-02-02T15:55:28.029Z,63.40
2019-02-02T15:57:57.380Z,69.23
2019-02-02T16:00:31.555Z,62.87
2019-02-02T16:03:01.727Z,57.50
2019-02-02T16:05:31.631Z,59.27
2019-02-02T16:08:03.162Z,56.53
2019-02-02T16:10:32.862Z,57.67
2019-02-02T16:13:02.435Z,59.27
2019-02-02T16:15:34.255Z,58.00
2019-02-02T16:18:02.990Z,56.37
2019-02-02T16:20:36.731Z,57.03
2019-02-02T16:23:07.435Z,59.03
2019-02-02T16:25:36.827Z,64.83
2019-02-02T16:28:06.892Z,61.63
2019-02-02T16:30:36.248Z,61.07
2019-02-02T16:33:05.547Z,64.33
2019-02-02T16:35:35.731Z,58.50
2019-02-02T16:38:05.358Z,61.93
2019-02-02T16:40:34.690Z,63.73
2019-02-02T16:43:04.063Z,62.63
2019-02-02T16:45:33.487Z,54.60
2019-02-02T16:48:02.870Z,56.60
2019-02-02T16:50:32.215Z,58.40
2019-02-02T16:53:01.584Z,59.97
2019-02-02T16:55:31.040Z,64.47
2019-02-02T16:58:00.324Z,62.07
2019-02-02T17:00:32.989Z,63.67
2019-02-02T17:03:02.465Z,75.20
2019-02-02T17:05:32.438Z,67.20
2019-02-02T17:08:01.884Z,66.50
2019-02-02T17:10:34.352Z,66.93
2019-02-02T17:13:03.734Z,58.93
2019-02-02T17:15:33.345Z,68.93
2019-02-02T17:18:02.766Z,66.63
2019-02-02T17:20:36.057Z,69.47
2019-02-02T17:23:05.493Z,65.40
2019-02-02T17:25:34.981Z,66.73
2019-02-02T17:28:05.391Z,73.03
2019-02-02T17:30:35.090Z,69.93
2019-02-02T17:33:07.761Z,63.00
2019-02-02T17:35:37.167Z,63.97
2019-02-02T17:38:06.729Z,64.23
2019-02-02T17:40:36.062Z,62.60
2019-02-02T17:43:05.459Z,55.60
2019-02-02T17:45:34.793Z,59.20
2019-02-02T17:48:04.421Z,60.03
2019-02-02T17:50:33.904Z,57.50
2019-02-02T17:53:03.284Z,59.40
2019-02-02T17:55:32.638Z,57.63
2019-02-02T17:58:01.983Z,61.23
2019-02-02T18:00:41.279Z,57.47
2019-02-02T18:03:11.544Z,60.20
2019-02-02T18:05:40.948Z,56.23
2019-02-02T18:08:10.351Z,55.03
2019-02-02T18:10:39.912Z,54.60
2019-02-02T18:13:09.351Z,52.57
2019-02-02T18:15:38.797Z,53.63
2019-02-02T18:18:08.239Z,55.73
2019-02-02T18:20:37.726Z,55.50
2019-02-02T18:23:07.153Z,54.80
2019-02-02T18:25:36.721Z,52.73
2019-02-02T18:28:06.283Z,53.90
2019-02-02T18:30:35.708Z,51.43
2019-02-02T18:33:05.205Z,51.83
2019-02-02T18:35:34.885Z,50.97
2019-02-02T18:38:04.357Z,51.75
2019-02-02T18:40:33.775Z,49.07
2019-02-02T18:43:03.096Z,51.50
2019-02-02T18:45:33.460Z,48.10
2019-02-02T18:48:02.897Z,48.70
2019-02-02T18:50:32.272Z,50.43
2019-02-02T18:53:02.310Z,51.37
2019-02-02T18:55:44.270Z,51.57
2019-02-02T18:58:14.304Z,49.80
2019-02-02T19:00:44.371Z,53.73
2019-02-02T19:03:13.772Z,51.00
2019-02-02T19:05:43.118Z,54.10
2019-02-02T19:08:12.624Z,57.50
2019-02-02T19:10:42.143Z,57.30
2019-02-02T19:13:11.518Z,56.60
2019-02-02T19:15:41.413Z,57.47
2019-02-02T19:18:10.821Z,57.13
2019-02-02T19:20:40.161Z,53.83
2019-02-02T19:23:09.590Z,61.23
2019-02-02T19:25:38.998Z,58.90
2019-02-02T19:28:09.317Z,60.97
2019-02-02T19:30:39.037Z,58.60
2019-02-02T19:33:08.523Z,56.43
2019-02-02T19:35:37.943Z,60.70
2019-02-02T19:38:07.518Z,58.03
2019-02-02T19:40:37.033Z,57.20
2019-02-02T19:43:06.491Z,61.83
2019-02-02T19:45:35.869Z,60.77
2019-02-02T19:48:05.298Z,58.57
2019-02-02T19:50:34.822Z,58.33
2019-02-02T19:53:04.311Z,64.90
2019-02-02T19:55:33.913Z,61.50
2019-02-02T19:58:03.397Z,65.77
2019-02-02T20:00:34.274Z,64.93
2019-02-02T20:03:03.847Z,62.20
2019-02-02T20:05:33.266Z,61.57
2019-02-02T20:08:02.799Z,59.27
2019-02-02T20:10:32.304Z,61.83
2019-02-02T20:13:01.896Z,56.93
2019-02-02T20:15:31.368Z,65.97
2019-02-02T20:18:09.394Z,60.23
2019-02-02T20:20:30.305Z,61.03
2019-02-02T20:22:59.747Z,63.50
2019-02-02T20:25:29.307Z,62.00
2019-02-02T20:27:58.706Z,63.10
2019-02-02T20:30:31.077Z,59.77
2019-02-02T20:33:00.499Z,59.37
2019-02-02T20:35:40.271Z,60.80
2019-02-02T20:37:59.535Z,55.00
2019-02-02T20:40:29.027Z,56.83
2019-02-02T20:42:58.543Z,56.10
2019-02-02T20:45:32.238Z,58.40
2019-02-02T20:48:01.652Z,55.07
2019-02-02T20:50:31.184Z,55.73
2019-02-02T20:53:02.261Z,51.67
2019-02-02T20:55:35.212Z,52.43
2019-02-02T20:58:04.681Z,48.77
2019-02-02T21:00:34.823Z,50.77
2019-02-02T21:03:04.355Z,54.47
2019-02-02T21:05:34.008Z,47.67
2019-02-02T21:08:03.429Z,51.60
2019-02-02T21:10:32.920Z,49.03
2019-02-02T21:13:02.269Z,49.47
2019-02-02T21:15:31.804Z,51.80
2019-02-02T21:18:01.236Z,45.30
2019-02-02T21:20:30.733Z,43.33
2019-02-02T21:23:00.176Z,50.95
2019-02-02T21:25:29.485Z,45.80
2019-02-02T21:27:58.783Z,42.00
2019-02-02T21:30:31.026Z,42.17
2019-02-02T21:33:00.334Z,43.90
2019-02-02T21:35:29.786Z,42.63
2019-02-02T21:37:59.131Z,46.27
2019-02-02T21:40:31.268Z,43.60
2019-02-02T21:43:00.558Z,41.93
2019-02-02T21:45:30.102Z,43.00
2019-02-02T21:47:59.448Z,42.13
2019-02-02T21:50:28.865Z,39.53
2019-02-02T21:52:58.887Z,43.17
2019-02-02T21:55:29.326Z,43.10
2019-02-02T21:57:58.700Z,42.20
2019-02-02T22:00:32.421Z,40.97
2019-02-02T22:03:01.751Z,37.70
2019-02-02T22:05:31.081Z,36.93
2019-02-02T22:08:00.309Z,34.57
2019-02-02T22:10:29.624Z,40.77
2019-02-02T22:12:59.026Z,40.73
2019-02-02T22:15:28.540Z,38.10
2019-02-02T22:17:57.932Z,38.23
2019-02-02T22:20:27.236Z,40.00
2019-02-02T22:22:56.574Z,35.43
2019-02-02T22:25:28.469Z,36.60
2019-02-02T22:27:57.792Z,38.90
2019-02-02T22:30:31.016Z,37.83
2019-02-02T22:33:00.513Z,39.63
2019-02-02T22:35:29.988Z,35.63
2019-02-02T22:37:59.935Z,41.20
2019-02-02T22:40:29.424Z,39.63
2019-02-02T22:42:59.247Z,38.73
2019-02-02T22:45:28.616Z,37.73
2019-02-02T22:47:58.583Z,41.60
2019-02-02T22:50:28.260Z,40.90
2019-02-02T22:52:57.627Z,44.67
2019-02-02T22:55:27.012Z,42.67
2019-02-02T22:57:56.860Z,39.20
2019-02-02T23:00:46.677Z,39.20
2019-02-02T23:03:18.203Z,41.60
2019-02-02T23:08:04.793Z,45.53
2019-02-02T23:10:49.866Z,51.73
2019-02-02T23:16:35.556Z,47.70
2019-02-02T23:19:04.903Z,44.20
2019-02-02T23:21:34.276Z,43.53
2019-02-02T23:24:03.895Z,47.93
2019-02-02T23:26:33.431Z,48.80
2019-02-02T23:29:02.755Z,48.97
2019-02-02T23:31:32.140Z,47.05
2019-02-02T23:34:01.669Z,47.87
2019-02-02T23:36:30.937Z,42.60
2019-02-02T23:39:00.284Z,43.63
2019-02-02T23:41:29.823Z,40.93
2019-02-02T23:44:00.025Z,44.03
2019-02-02T23:46:29.320Z,41.67
2019-02-02T23:48:58.644Z,37.37
2019-02-02T23:51:27.977Z,40.53
2019-02-02T23:53:58.203Z,37.57
2019-02-02T23:56:28.887Z,36.07
2019-02-02T23:58:58.247Z,30.03
